createdAt,value
2022-12-23T00:01:29.744Z,91662.50
2022-12-23T00:03:59.841Z,91675.13
2022-12-23T00:06:28.733Z,91658.25
2022-12-23T00:08:59.418Z,91655.56
2022-12-23T00:11:29.889Z,91663.63
2022-12-23T00:14:25.728Z,91666.28
2022-12-23T00:16:54.219Z,91664.34
2022-12-23T00:19:22.664Z,91645.59
2022-12-23T00:21:51.057Z,91657.03
2022-12-23T00:24:19.679Z,91648.16
2022-12-23T00:26:48.098Z,91653.13
2022-12-23T00:29:17.876Z,91659.69
2022-12-23T00:31:46.334Z,91661.66
2022-12-23T00:34:15.081Z,91654.53
2022-12-23T00:36:43.575Z,91656.94
2022-12-23T00:39:31.860Z,91655.47
2022-12-23T00:42:17.847Z,91653.03
2022-12-23T00:44:47.824Z,91659.66
2022-12-23T00:47:30.101Z,91659.25
2022-12-23T00:49:58.740Z,91668.09
2022-12-23T00:52:27.510Z,91667.59
2022-12-23T00:54:56.136Z,91668.81
2022-12-23T00:57:24.538Z,91664.13
2022-12-23T00:59:54.539Z,91664.50
2022-12-23T01:02:40.724Z,91656.69
2022-12-23T01:05:29.764Z,91677.56
2022-12-23T01:07:58.235Z,91672.53
2022-12-23T01:10:26.710Z,91655.66
2022-12-23T01:12:55.168Z,91647.91
2022-12-23T01:15:25.033Z,91658.28
2022-12-23T01:17:53.689Z,91661.41
2022-12-23T01:20:22.192Z,91671.50
2022-12-23T01:22:50.818Z,91674.50
2022-12-23T01:25:19.637Z,91672.00
2022-12-23T01:27:48.086Z,91677.44
2022-12-23T01:30:16.667Z,91702.41
2022-12-23T01:32:46.585Z,91688.94
2022-12-23T01:35:15.062Z,91705.16
2022-12-23T01:37:43.526Z,91704.47
2022-12-23T01:40:12.652Z,91700.66
2022-12-23T01:42:47.508Z,91704.44
2022-12-23T01:45:19.916Z,91710.00
2022-12-23T01:47:53.722Z,91707.31
2022-12-23T01:50:27.907Z,91717.78
2022-12-23T01:53:07.632Z,91717.75
2022-12-23T01:55:42.299Z,91704.13
2022-12-23T01:58:14.724Z,91726.59
2022-12-23T02:01:01.394Z,91718.94
2022-12-23T02:03:43.509Z,91723.41
2022-12-23T02:06:36.112Z,91718.38
2022-12-23T02:09:19.491Z,91712.22
2022-12-23T02:12:43.537Z,91717.94
2022-12-23T02:15:48.002Z,91731.47
2022-12-23T02:18:45.565Z,91738.75
2022-12-23T02:21:30.981Z,91734.94
2022-12-23T02:24:49.246Z,91727.19
2022-12-23T02:27:26.265Z,91727.91
2022-12-23T02:30:37.966Z,91734.13
2022-12-23T02:33:47.626Z,91754.13
2022-12-23T02:36:36.042Z,91734.03
2022-12-23T02:39:11.224Z,91725.88
2022-12-23T02:41:52.593Z,91738.59
2022-12-23T02:44:31.053Z,91748.78
2022-12-23T02:47:03.833Z,91737.16
2022-12-23T02:49:35.715Z,91733.81
2022-12-23T02:52:09.199Z,91733.41
2022-12-23T02:54:43.325Z,91745.22
2022-12-23T02:57:14.260Z,91751.88
2022-12-23T02:59:47.885Z,91761.41
2022-12-23T03:02:18.207Z,91753.41
2022-12-23T03:04:46.855Z,91752.59
2022-12-23T03:07:20.042Z,91746.44
2022-12-23T03:09:59.769Z,91749.13
2022-12-23T03:12:43.705Z,91756.09
2022-12-23T03:15:26.501Z,91749.13
2022-12-23T03:18:04.499Z,91747.97
2022-12-23T03:20:45.403Z,91751.91
2022-12-23T03:23:24.549Z,91755.72
2022-12-23T03:26:03.637Z,91758.44
2022-12-23T03:28:38.195Z,91756.22
2022-12-23T03:31:13.685Z,91749.28
2022-12-23T03:33:47.980Z,91758.06
2022-12-23T03:36:23.226Z,91755.84
2022-12-23T03:38:54.847Z,91747.28
2022-12-23T03:41:29.181Z,91755.78
2022-12-23T03:44:03.113Z,91752.69
2022-12-23T03:46:38.067Z,91766.44
2022-12-23T03:49:11.503Z,91773.31
2022-12-23T03:51:49.015Z,91770.22
2022-12-23T03:54:24.423Z,91757.09
2022-12-23T03:57:01.506Z,91760.69
2022-12-23T03:59:33.229Z,91761.75
2022-12-23T04:02:09.488Z,91745.56
2022-12-23T04:04:54.779Z,91757.16
2022-12-23T04:07:27.225Z,91748.81
2022-12-23T04:09:56.408Z,91741.78
2022-12-23T04:12:28.199Z,91741.78
2022-12-23T04:14:56.669Z,91742.91
2022-12-23T04:17:25.391Z,91755.91
2022-12-23T04:19:55.623Z,91743.31
2022-12-23T04:22:24.078Z,91734.88
2022-12-23T04:24:52.744Z,91743.78
2022-12-23T04:27:21.151Z,91750.28
2022-12-23T04:29:49.581Z,91750.59
2022-12-23T04:32:18.026Z,91766.03
2022-12-23T04:34:48.874Z,91765.00
2022-12-23T04:37:18.697Z,91756.00
2022-12-23T04:39:47.140Z,91760.50
2022-12-23T04:42:15.536Z,91766.38
2022-12-23T04:44:44.256Z,91752.94
2022-12-23T04:47:12.756Z,91774.44
2022-12-23T04:49:41.226Z,91763.34
2022-12-23T04:52:10.117Z,91772.56
2022-12-23T04:54:45.818Z,91766.69
2022-12-23T04:57:15.313Z,91758.16
2022-12-23T04:59:43.951Z,91763.59
2022-12-23T05:02:12.871Z,91757.91
2022-12-23T05:04:41.831Z,91741.25
2022-12-23T05:07:10.236Z,91746.28
2022-12-23T05:09:40.068Z,91758.59
2022-12-23T05:12:08.575Z,91755.50
2022-12-23T05:14:37.013Z,91755.81
2022-12-23T05:17:08.011Z,91749.13
2022-12-23T05:19:37.387Z,91746.91
2022-12-23T05:22:06.049Z,91757.00
2022-12-23T05:24:34.494Z,91757.34
2022-12-23T05:27:04.309Z,91757.41
2022-12-23T05:29:32.749Z,91751.50
2022-12-23T05:32:01.505Z,91764.69
2022-12-23T05:34:30.103Z,91763.97
2022-12-23T05:36:58.597Z,91771.56
2022-12-23T05:39:27.246Z,91765.84
2022-12-23T05:41:55.654Z,91770.47
2022-12-23T05:44:25.489Z,91759.28
2022-12-23T05:46:53.919Z,91776.22
2022-12-23T05:49:22.662Z,91762.34
2022-12-23T05:51:51.088Z,91779.75
2022-12-23T05:54:19.528Z,91799.72
2022-12-23T05:56:47.941Z,91786.03
2022-12-23T05:59:16.622Z,91786.13
2022-12-23T06:01:46.519Z,91785.50
2022-12-23T06:04:15.385Z,91772.81
2022-12-23T06:06:43.835Z,91774.75
2022-12-23T06:09:12.509Z,91780.47
2022-12-23T06:11:40.972Z,91776.09
2022-12-23T06:14:09.417Z,91803.09
2022-12-23T06:16:37.877Z,91788.50
2022-12-23T06:19:07.997Z,91775.69
2022-12-23T06:21:36.444Z,91776.22
2022-12-23T06:24:05.391Z,91762.38
2022-12-23T06:26:34.347Z,91769.66
2022-12-23T06:29:02.839Z,91751.41
2022-12-23T06:31:31.529Z,91768.44
2022-12-23T06:34:00.097Z,91762.28
2022-12-23T06:36:30.154Z,91763.47
2022-12-23T06:38:58.609Z,91760.03
2022-12-23T06:41:27.026Z,91768.53
2022-12-23T06:43:55.493Z,91763.09
2022-12-23T06:46:24.034Z,91772.91
2022-12-23T06:48:52.532Z,91771.69
2022-12-23T06:51:21.654Z,91782.47
2022-12-23T06:53:51.495Z,91792.09
2022-12-23T06:56:20.126Z,91772.16
2022-12-23T06:58:48.584Z,91786.03
2022-12-23T07:01:17.058Z,91776.38
2022-12-23T07:03:45.723Z,91778.66
2022-12-23T07:06:14.697Z,91769.72
2022-12-23T07:08:43.188Z,91780.97
2022-12-23T07:11:13.267Z,91778.22
2022-12-23T07:13:41.954Z,91771.66
2022-12-23T07:16:11.253Z,91774.06
2022-12-23T07:18:39.784Z,91799.75
2022-12-23T07:21:16.314Z,91807.44
2022-12-23T07:23:49.922Z,91813.19
2022-12-23T07:26:19.785Z,91820.97
2022-12-23T07:28:48.981Z,91816.72
2022-12-23T07:31:17.870Z,91820.44
2022-12-23T07:33:46.448Z,91825.16
2022-12-23T07:36:14.999Z,91830.56
2022-12-23T07:38:43.444Z,91839.41
2022-12-23T07:41:11.896Z,91840.06
2022-12-23T07:43:41.751Z,91824.19
2022-12-23T07:46:10.991Z,91835.59
2022-12-23T07:48:41.998Z,91834.66
2022-12-23T07:51:10.848Z,91828.50
2022-12-23T07:53:39.571Z,91819.59
2022-12-23T07:56:09.167Z,91820.69
2022-12-23T07:58:37.641Z,91824.94
2022-12-23T08:01:09.090Z,91812.63
2022-12-23T08:03:38.803Z,91810.03
2022-12-23T08:06:10.030Z,91825.44
2022-12-23T08:08:39.414Z,91816.94
2022-12-23T08:11:10.233Z,91812.31
2022-12-23T08:13:41.741Z,91832.31
2022-12-23T08:16:12.949Z,91827.28
2022-12-23T08:18:43.178Z,91836.19
2022-12-23T08:21:15.851Z,91847.72
2022-12-23T08:23:44.834Z,91858.50
2022-12-23T08:26:16.793Z,91850.09
2022-12-23T08:28:46.399Z,91864.72
2022-12-23T08:31:18.945Z,91883.59
2022-12-23T08:33:52.315Z,91871.63
2022-12-23T08:36:23.665Z,91870.88
2022-12-23T08:38:54.537Z,91869.75
2022-12-23T08:41:27.812Z,91868.94
2022-12-23T08:43:57.720Z,91874.69
2022-12-23T08:46:28.824Z,91870.91
2022-12-23T08:48:57.387Z,91865.59
2022-12-23T08:51:27.599Z,91866.66
2022-12-23T08:54:00.445Z,91866.69
2022-12-23T08:56:32.617Z,91850.41
2022-12-23T08:59:02.720Z,91844.50
2022-12-23T09:01:35.469Z,91858.59
2022-12-23T09:04:05.764Z,91856.06
2022-12-23T09:06:37.619Z,91865.25
2022-12-23T09:09:06.827Z,91866.88
2022-12-23T09:11:36.220Z,91868.81
2022-12-23T09:14:05.989Z,91856.84
2022-12-23T09:16:36.252Z,91867.63
2022-12-23T09:19:05.536Z,91862.56
2022-12-23T09:21:34.023Z,91860.66
2022-12-23T09:24:02.604Z,91866.75
2022-12-23T09:26:33.130Z,91874.06
2022-12-23T09:29:02.258Z,91869.75
2022-12-23T09:31:36.819Z,91859.63
2022-12-23T09:34:07.759Z,91859.63
2022-12-23T09:36:36.205Z,91850.63
2022-12-23T09:39:05.501Z,91850.22
2022-12-23T09:42:01.324Z,91845.22
2022-12-23T09:44:50.396Z,91840.03
2022-12-23T09:47:23.263Z,91839.56
2022-12-23T09:49:58.701Z,91842.97
2022-12-23T09:52:37.422Z,91853.66
2022-12-23T09:55:10.695Z,91847.59
2022-12-23T09:57:49.244Z,91853.19
2022-12-23T10:00:20.616Z,91873.28
2022-12-23T10:03:08.659Z,91849.06
2022-12-23T10:05:52.927Z,91835.09
2022-12-23T10:08:29.355Z,91827.47
2022-12-23T10:11:02.827Z,91843.50
2022-12-23T10:13:39.584Z,91848.91
2022-12-23T10:16:14.243Z,91842.91
2022-12-23T10:18:51.318Z,91831.38
2022-12-23T10:21:31.935Z,91836.50
2022-12-23T10:24:08.383Z,91830.22
2022-12-23T10:26:48.044Z,91820.66
2022-12-23T10:29:20.201Z,91821.44
2022-12-23T10:32:05.570Z,91819.19
2022-12-23T10:34:46.280Z,91819.72
2022-12-23T10:37:25.974Z,91823.28
2022-12-23T10:40:06.316Z,91810.97
2022-12-23T10:42:41.591Z,91808.13
2022-12-23T10:45:27.561Z,91796.50
2022-12-23T10:48:14.533Z,91806.56
2022-12-23T10:51:00.195Z,91791.94
2022-12-23T10:53:39.045Z,91795.28
2022-12-23T10:56:09.716Z,91783.34
2022-12-23T10:58:42.790Z,91773.97
2022-12-23T11:01:24.132Z,91772.44
2022-12-23T11:04:03.163Z,91788.75
2022-12-23T11:06:37.450Z,91784.28
2022-12-23T11:09:13.568Z,91777.44
2022-12-23T11:11:59.029Z,91775.97
2022-12-23T11:14:41.631Z,91785.13
2022-12-23T11:17:23.315Z,91772.16
2022-12-23T11:20:13.328Z,91750.59
2022-12-23T11:22:50.506Z,91755.13
2022-12-23T11:25:35.335Z,91754.38
2022-12-23T11:28:09.145Z,91747.72
2022-12-23T11:30:55.225Z,91745.38
2022-12-23T11:33:28.612Z,91740.16
2022-12-23T11:36:08.213Z,91734.69
2022-12-23T11:38:39.546Z,91730.63
2022-12-23T11:41:09.851Z,91739.56
2022-12-23T11:43:41.089Z,91734.44
2022-12-23T11:46:28.496Z,91733.16
2022-12-23T11:49:08.772Z,91732.41
2022-12-23T11:51:37.484Z,91728.31
2022-12-23T11:54:06.376Z,91726.03
2022-12-23T11:56:41.784Z,91717.44
2022-12-23T11:59:28.893Z,91716.84
2022-12-23T12:02:00.777Z,91715.81
2022-12-23T12:07:23.970Z,91711.94
2022-12-23T12:09:52.699Z,91706.06
2022-12-23T12:12:23.827Z,91715.34
2022-12-23T12:14:55.410Z,91700.88
2022-12-23T12:17:29.174Z,91708.97
2022-12-23T12:20:06.157Z,91710.84
2022-12-23T12:22:41.387Z,91715.56
2022-12-23T12:25:23.180Z,91712.03
2022-12-23T12:28:00.373Z,91707.78
2022-12-23T12:30:36.604Z,91721.31
2022-12-23T12:33:10.222Z,91715.22
2022-12-23T12:35:45.184Z,91719.38
2022-12-23T12:38:22.913Z,91703.56
2022-12-23T12:40:54.939Z,91723.31
2022-12-23T12:43:31.611Z,91719.09
2022-12-23T12:46:18.085Z,91713.63
2022-12-23T12:48:53.164Z,91699.63
2022-12-23T12:51:28.041Z,91702.34
2022-12-23T12:54:07.849Z,91692.13
2022-12-23T12:56:45.197Z,91681.19
2022-12-23T12:59:19.191Z,91678.06
2022-12-23T13:02:01.758Z,91658.66
2022-12-23T13:05:13.749Z,91658.03
2022-12-23T13:08:01.658Z,91666.56
2022-12-23T13:10:42.373Z,91663.50
2022-12-23T13:13:31.431Z,91661.50
2022-12-23T13:16:09.387Z,91651.88
2022-12-23T13:18:47.810Z,91666.56
2022-12-23T13:21:25.530Z,91664.34
2022-12-23T13:24:04.043Z,91665.88
2022-12-23T13:26:39.175Z,91671.97
2022-12-23T13:29:57.760Z,91671.13
2022-12-23T13:32:57.624Z,91678.06
2022-12-23T13:35:38.432Z,91657.50
2022-12-23T13:38:29.268Z,91685.41
2022-12-23T13:41:05.931Z,91657.50
2022-12-23T13:43:44.176Z,91647.75
2022-12-23T13:46:24.253Z,91665.09
2022-12-23T13:49:02.624Z,91667.09
2022-12-23T13:51:40.575Z,91667.09
2022-12-23T13:54:22.054Z,91659.44
2022-12-23T13:57:01.769Z,91682.38
2022-12-23T13:59:41.217Z,91672.38
2022-12-23T14:02:50.785Z,91661.84
2022-12-23T14:05:36.957Z,91668.81
2022-12-23T14:08:08.775Z,91666.81
2022-12-23T14:10:38.200Z,91659.00
2022-12-23T14:13:09.624Z,91660.03
2022-12-23T14:16:30.963Z,91662.47
2022-12-23T14:19:38.167Z,91660.53
2022-12-23T14:22:29.823Z,91670.91
2022-12-23T14:25:44.725Z,91659.84
2022-12-23T14:28:36.120Z,91667.38
2022-12-23T14:31:06.482Z,91681.84
2022-12-23T14:33:38.285Z,91687.53
2022-12-23T14:36:24.693Z,91682.28
2022-12-23T14:39:32.899Z,91682.06
2022-12-23T14:42:06.120Z,91681.03
2022-12-23T14:44:50.500Z,91695.22
2022-12-23T14:47:35.636Z,91684.00
2022-12-23T14:50:57.489Z,91694.81
2022-12-23T14:53:27.492Z,91689.31
2022-12-23T14:56:26.975Z,91686.28
2022-12-23T14:59:15.235Z,91687.88
2022-12-23T15:01:48.814Z,91698.69
2022-12-23T15:04:23.283Z,91685.19
2022-12-23T15:06:56.495Z,91708.75
2022-12-23T15:09:29.051Z,91697.84
2022-12-23T15:12:03.367Z,91711.16
2022-12-23T15:14:36.100Z,91726.53
2022-12-23T15:17:24.732Z,91717.50
2022-12-23T15:19:53.414Z,91738.09
2022-12-23T15:22:28.552Z,91726.53
2022-12-23T15:25:00.530Z,91714.25
2022-12-23T15:27:35.273Z,91691.41
2022-12-23T15:30:04.087Z,91695.41
2022-12-23T15:32:32.981Z,91715.03
2022-12-23T15:35:06.256Z,91715.78
2022-12-23T15:37:35.949Z,91730.22
2022-12-23T15:40:12.765Z,91723.53
2022-12-23T15:42:49.897Z,91743.97
2022-12-23T15:45:36.242Z,91767.97
2022-12-23T15:48:07.388Z,91746.63
2022-12-23T15:50:41.878Z,91750.25
2022-12-23T15:53:14.444Z,91747.94
2022-12-23T15:55:42.959Z,91756.47
2022-12-23T15:58:21.280Z,91753.66
2022-12-23T16:00:56.690Z,91762.88
2022-12-23T16:03:31.705Z,91765.16
2022-12-23T16:06:10.790Z,91781.44
2022-12-23T16:08:39.918Z,91769.25
2022-12-23T16:11:17.000Z,91758.94
2022-12-23T16:13:59.240Z,91755.84
2022-12-23T16:16:41.227Z,91752.84
2022-12-23T16:19:45.093Z,91771.19
2022-12-23T16:22:29.613Z,91761.84
2022-12-23T16:25:11.509Z,91764.63
2022-12-23T16:27:43.348Z,91765.47
2022-12-23T16:30:19.337Z,91760.31
2022-12-23T16:32:54.896Z,91774.66
2022-12-23T16:35:40.150Z,91781.88
2022-12-23T16:38:17.352Z,91774.06
2022-12-23T16:40:48.047Z,91777.84
2022-12-23T16:43:17.691Z,91792.53
2022-12-23T16:45:52.938Z,91783.53
2022-12-23T16:48:29.400Z,91768.84
2022-12-23T16:50:58.411Z,91759.28
2022-12-23T16:53:26.966Z,91771.63
2022-12-23T16:56:00.489Z,91768.78
2022-12-23T16:58:29.598Z,91780.28
2022-12-23T17:00:59.535Z,91762.00
2022-12-23T17:03:28.072Z,91747.16
2022-12-23T17:05:56.548Z,91751.28
2022-12-23T17:08:25.088Z,91760.38
2022-12-23T17:10:53.890Z,91759.28
2022-12-23T17:13:22.368Z,91749.66
2022-12-23T17:15:51.454Z,91750.19
2022-12-23T17:18:21.301Z,91754.16
2022-12-23T17:20:51.020Z,91765.78
2022-12-23T17:23:29.814Z,91781.94
2022-12-23T17:25:58.601Z,91768.72
2022-12-23T17:28:32.499Z,91776.78
2022-12-23T17:31:02.101Z,91777.31
2022-12-23T17:33:33.922Z,91797.75
2022-12-23T17:36:02.770Z,91788.16
2022-12-23T17:38:31.240Z,91767.25
2022-12-23T17:41:00.280Z,91790.53
2022-12-23T17:43:29.291Z,91798.66
2022-12-23T17:45:57.882Z,91777.72
2022-12-23T17:48:31.428Z,91772.41
2022-12-23T17:51:02.030Z,91764.75
2022-12-23T17:53:30.509Z,91781.47
2022-12-23T17:55:58.983Z,91784.63
2022-12-23T17:58:27.673Z,91766.50
2022-12-23T18:00:56.244Z,91749.72
2022-12-23T18:03:26.170Z,91785.13
2022-12-23T18:06:01.710Z,91755.97
2022-12-23T18:08:32.185Z,91755.75
2022-12-23T18:11:01.735Z,91754.72
2022-12-23T18:13:30.183Z,91767.31
2022-12-23T18:15:58.902Z,91785.00
2022-12-23T18:18:35.600Z,91770.31
2022-12-23T18:21:12.198Z,91766.13
2022-12-23T18:23:42.087Z,91777.72
2022-12-23T18:26:15.169Z,91783.97
2022-12-23T18:28:44.599Z,91794.31
2022-12-23T18:31:17.776Z,91802.44
2022-12-23T18:33:46.658Z,91805.09
2022-12-23T18:36:24.578Z,91789.78
2022-12-23T18:38:55.175Z,91791.97
2022-12-23T18:41:24.762Z,91797.47
2022-12-23T18:43:53.701Z,91818.00
2022-12-23T18:46:22.529Z,91818.84
2022-12-23T18:48:51.727Z,91812.78
2022-12-23T18:51:22.674Z,91804.25
2022-12-23T18:53:55.870Z,91825.88
2022-12-23T18:56:24.345Z,91834.38
2022-12-23T18:58:52.817Z,91837.56
2022-12-23T19:01:21.561Z,91832.44
2022-12-23T19:03:50.302Z,91825.09
2022-12-23T19:06:18.780Z,91841.72
2022-12-23T19:08:47.231Z,91829.94
2022-12-23T19:11:20.456Z,91830.63
2022-12-23T19:13:49.505Z,91833.09
2022-12-23T19:16:21.243Z,91818.00
2022-12-23T19:18:50.860Z,91847.31
2022-12-23T19:21:19.993Z,91844.66
2022-12-23T19:23:48.462Z,91834.56
2022-12-23T19:26:18.293Z,91868.72
2022-12-23T19:28:48.206Z,91851.41
2022-12-23T19:31:18.531Z,91864.84
2022-12-23T19:33:48.437Z,91863.31
2022-12-23T19:36:19.596Z,91868.00
2022-12-23T19:38:48.138Z,91852.56
2022-12-23T19:41:17.987Z,91854.97
2022-12-23T19:43:47.657Z,91878.84
2022-12-23T19:46:17.634Z,91870.91
2022-12-23T19:48:51.586Z,91891.69
2022-12-23T19:51:20.412Z,91869.19
2022-12-23T19:53:53.023Z,91865.81
2022-12-23T19:56:23.462Z,91858.00
2022-12-23T19:58:52.259Z,91857.34
2022-12-23T20:01:24.239Z,91874.84
2022-12-23T20:03:54.773Z,91897.97
2022-12-23T20:06:26.672Z,91900.94
2022-12-23T20:09:00.315Z,91892.16
2022-12-23T20:11:33.520Z,91901.44
2022-12-23T20:14:03.027Z,91894.50
2022-12-23T20:16:32.261Z,91885.38
2022-12-23T20:19:01.066Z,91920.38
2022-12-23T20:21:29.736Z,91935.81
2022-12-23T20:23:58.223Z,91955.88
2022-12-23T20:26:27.781Z,91946.25
2022-12-23T20:28:58.482Z,91964.69
2022-12-23T20:31:28.960Z,91937.06
2022-12-23T20:33:58.220Z,91947.94
2022-12-23T20:36:31.334Z,91949.63
2022-12-23T20:39:00.103Z,91946.94
2022-12-23T20:41:31.194Z,91954.22
2022-12-23T20:46:50.334Z,91965.91
2022-12-23T20:49:18.834Z,91950.50
2022-12-23T20:51:47.323Z,91955.56
2022-12-23T20:54:15.805Z,91970.56
2022-12-23T20:56:44.496Z,91969.34
2022-12-23T20:59:14.350Z,91969.84
2022-12-23T21:01:43.354Z,91967.94
2022-12-23T21:04:15.880Z,91972.09
2022-12-23T21:06:45.409Z,91978.44
2022-12-23T21:09:16.519Z,91979.03
2022-12-23T21:11:47.585Z,91976.78
2022-12-23T21:14:18.037Z,91961.94
2022-12-23T21:16:46.664Z,91959.38
2022-12-23T21:19:21.470Z,91960.84
2022-12-23T21:21:53.765Z,91987.88
2022-12-23T21:24:22.355Z,91990.63
2022-12-23T21:26:56.452Z,91984.22
2022-12-23T21:29:27.720Z,91986.56
2022-12-23T21:31:56.601Z,91975.03
2022-12-23T21:34:25.257Z,91981.66
2022-12-23T21:36:53.796Z,91961.94
2022-12-23T21:39:22.633Z,91970.44
2022-12-23T21:41:53.010Z,91968.28
2022-12-23T21:44:21.694Z,91994.44
2022-12-23T21:46:52.747Z,92003.63
2022-12-23T21:49:22.083Z,92007.53
2022-12-23T21:51:50.597Z,92023.00
2022-12-23T21:54:19.074Z,92025.28
2022-12-23T21:56:47.801Z,92013.22
2022-12-23T21:59:16.609Z,92009.91
2022-12-23T22:01:45.231Z,92008.34
2022-12-23T22:04:15.161Z,91996.03
2022-12-23T22:06:45.117Z,92014.56
2022-12-23T22:09:16.751Z,92008.38
2022-12-23T22:11:46.171Z,92020.00
2022-12-23T22:14:17.525Z,92014.59
2022-12-23T22:16:46.129Z,92009.25
2022-12-23T22:19:16.394Z,92004.72
2022-12-23T22:21:44.851Z,92013.19
2022-12-23T22:24:13.323Z,92014.66
2022-12-23T22:26:42.526Z,92018.53
2022-12-23T22:29:12.679Z,92031.47
2022-12-23T22:31:44.341Z,92033.84
2022-12-23T22:34:17.410Z,92040.34
2022-12-23T22:36:46.207Z,92033.38
2022-12-23T22:39:20.723Z,92034.56
2022-12-23T22:41:52.096Z,92036.91
2022-12-23T22:44:21.941Z,92020.34
2022-12-23T22:46:51.003Z,92017.00
2022-12-23T22:49:21.026Z,92015.44
2022-12-23T22:51:49.474Z,92011.22
2022-12-23T22:54:17.947Z,92007.00
2022-12-23T22:56:46.978Z,91995.50
2022-12-23T22:59:24.004Z,92007.69
2022-12-23T23:01:53.793Z,92018.47
2022-12-23T23:04:23.819Z,92021.16
2022-12-23T23:06:52.248Z,92012.34
2022-12-23T23:09:22.786Z,92017.69
2022-12-23T23:11:51.894Z,92014.66
2022-12-23T23:14:21.182Z,92003.53
2022-12-23T23:16:49.762Z,92008.59
2022-12-23T23:19:20.477Z,92008.25
2022-12-23T23:21:50.642Z,92010.22
2022-12-23T23:24:19.237Z,92020.59
2022-12-23T23:26:47.670Z,92009.13
2022-12-23T23:29:16.363Z,92021.38
2022-12-23T23:31:45.130Z,92019.81
2022-12-23T23:34:14.427Z,92018.78
2022-12-23T23:36:43.176Z,92017.59
2022-12-23T23:39:14.741Z,92022.19
2022-12-23T23:41:43.447Z,92035.25
2022-12-23T23:44:12.620Z,92027.97
2022-12-23T23:46:41.780Z,92025.28
2022-12-23T23:49:10.269Z,92011.84
2022-12-23T23:51:39.348Z,92010.34
2022-12-23T23:54:09.181Z,92004.19
2022-12-23T23:56:39.640Z,92011.91
2022-12-23T23:59:09.542Z,92034.19
